Time;durP1;ratioP1;P1;durP2;ratioP2;P2;SDS_P1;SDS_P2;PMS_P1;PMS_P2;Temp;Humidity;BMP_temperature;BMP_pressure;BME280_temperature;BME280_humidity;BME280_pressure;Samples;Min_cycle;Max_cycle;Signal;HPM_P1;HPM_P2
2023/10/06 04:29:48;;;;;;;13.80;6.30;;;;;;;11.00;62.19;99526.72;81157;1299;3013048;-66
2023/10/06 04:32:15;;;;;;;23.00;8.50;;;;;;;11.01;61.97;99525.75;79330;1302;3013183;-69
2023/10/06 04:34:42;;;;;;;17.70;7.50;;;;;;;11.00;62.00;99528.45;79115;1302;3011591;-69
2023/10/06 04:37:11;;;;;;;21.30;7.60;;;;;;;11.05;61.91;99525.14;78080;1304;3052526;-70
2023/10/06 04:39:39;;;;;;;18.30;7.30;;;;;;;11.04;62.01;99526.09;79211;1304;3011697;-65
2023/10/06 04:42:09;;;;;;;18.30;7.30;;;;;;;11.08;61.93;99517.94;75249;1298;6017093;-63
2023/10/06 04:44:36;;;;;;;21.80;7.50;;;;;;;11.01;62.25;99516.32;79285;1299;3012951;-69
2023/10/06 04:47:06;;;;;;;22.00;6.70;;;;;;;11.06;61.76;99519.66;79424;1298;3013409;-74
2023/10/06 04:49:34;;;;;;;14.60;7.10;;;;;;;11.11;61.51;99523.05;78156;1298;3052211;-69
2023/10/06 04:53:55;;;;;;;17.80;7.70;;;;;;;11.09;61.89;99518.43;80273;1301;3011867;-69
2023/10/06 04:56:22;;;;;;;22.00;9.20;;;;;;;11.07;61.85;99514.17;79319;1304;3012823;-71
2023/10/06 04:58:48;;;;;;;21.20;7.70;;;;;;;11.12;61.92;99514.02;79176;1304;3012033;-65
2023/10/06 05:01:16;;;;;;;22.80;8.10;;;;;;;11.18;61.85;99514.34;77922;1304;3053304;-67
2023/10/06 05:03:43;;;;;;;23.10;6.90;;;;;;;11.19;61.69;99521.14;79211;1303;3013700;-70
2023/10/06 05:06:15;;;;;;;25.90;7.30;;;;;;;11.17;61.71;99528.83;77611;1303;3173172;-71
2023/10/06 05:08:47;;;;;;;20.90;6.70;;;;;;;11.23;61.33;99531.95;78134;1303;3049671;-66
2023/10/06 05:11:17;;;;;;;18.80;7.90;;;;;;;11.23;61.46;99533.35;79330;1300;3013549;-70
2023/10/06 05:13:52;;;;;;;19.30;7.40;;;;;;;11.24;61.41;99533.11;77956;1300;3049482;-66
2023/10/06 05:16:22;;;;;;;22.80;6.90;;;;;;;11.30;61.21;99533.09;79013;1299;3011645;-70
2023/10/06 05:18:49;;;;;;;16.10;6.50;;;;;;;11.33;61.10;99532.41;79638;1303;3012967;-68
2023/10/06 05:21:17;;;;;;;18.50;7.60;;;;;;;11.37;60.94;99532.81;79584;1303;3011749;-71
2023/10/06 05:23:45;;;;;;;27.40;7.90;;;;;;;11.37;61.00;99533.88;78296;1303;3050877;-70
2023/10/06 05:26:14;;;;;;;24.90;7.10;;;;;;;11.42;60.87;99534.80;79422;1297;3018807;-70
2023/10/06 05:28:42;;;;;;;21.50;7.30;;;;;;;11.46;60.53;99537.34;79428;1298;3012296;-67
2023/10/06 05:31:10;;;;;;;26.40;7.00;;;;;;;11.55;60.24;99535.02;78447;1301;3049396;-65
2023/10/06 05:33:37;;;;;;;26.80;7.20;;;;;;;11.57;60.25;99533.29;79476;1301;3013589;-65
2023/10/06 05:36:12;;;;;;;22.00;7.40;;;;;;;11.61;60.18;99534.65;79495;1301;3011539;-68
2023/10/06 05:38:40;;;;;;;28.10;7.10;;;;;;;11.70;60.04;99537.94;78280;1297;3050595;-70
2023/10/06 05:41:11;;;;;;;24.20;7.60;;;;;;;11.68;60.29;99529.85;79530;1297;3018522;-69
2023/10/06 05:43:39;;;;;;;17.50;7.50;;;;;;;11.68;60.37;99525.58;78143;1301;3054271;-70
2023/10/06 05:46:06;;;;;;;30.50;7.90;;;;;;;11.76;60.17;99515.45;79442;1300;3013125;-72
2023/10/06 05:48:34;;;;;;;24.50;7.40;;;;;;;11.87;60.14;99521.60;79393;1302;3013001;-68
2023/10/06 05:51:05;;;;;;;24.10;7.30;;;;;;;11.91;59.78;99522.89;78487;1298;3069119;-70
2023/10/06 05:53:38;;;;;;;15.90;6.50;;;;;;;11.96;59.97;99525.42;79768;1297;3011404;-72
2023/10/06 05:56:09;;;;;;;23.50;7.10;;;;;;;11.94;59.97;99533.77;78449;1297;3055892;-67
2023/10/06 05:58:37;;;;;;;22.60;6.90;;;;;;;12.02;59.88;99524.34;79592;1301;3011608;-70
2023/10/06 06:01:06;;;;;;;17.10;5.60;;;;;;;12.17;59.67;99525.83;78446;1302;3053473;-70
2023/10/06 06:03:32;;;;;;;18.80;6.80;;;;;;;12.19;59.74;99532.30;79594;1303;3015760;-72
2023/10/06 06:06:08;;;;;;;32.40;7.40;;;;;;;12.21;59.77;99527.45;79434;1302;3013347;-67
2023/10/06 06:08:39;;;;;;;16.50;7.50;;;;;;;12.36;59.25;99526.45;78177;1300;3069434;-72
2023/10/06 06:11:06;;;;;;;21.40;6.90;;;;;;;12.43;59.12;99522.12;79434;1298;3011834;-64
2023/10/06 06:13:36;;;;;;;18.80;6.70;;;;;;;12.47;59.02;99514.34;79532;1297;3011851;-70
2023/10/06 06:16:05;;;;;;;17.50;6.90;;;;;;;12.54;58.82;99513.52;78401;1296;3054761;-72
2023/10/06 06:18:33;;;;;;;21.50;6.70;;;;;;;12.64;58.60;99517.03;79808;1301;3013121;-63
2023/10/06 06:21:03;;;;;;;15.00;6.40;;;;;;;12.71;58.40;99514.30;78941;1303;3011764;-68
2023/10/06 06:23:33;;;;;;;24.70;7.60;;;;;;;12.81;58.28;99514.65;79622;1296;3013643;-67
2023/10/06 06:26:02;;;;;;;20.90;6.70;;;;;;;12.85;58.28;99508.89;78053;1298;3049971;-64
2023/10/06 06:28:28;;;;;;;15.00;5.40;;;;;;;12.92;58.04;99505.23;79354;1301;3013253;-70
2023/10/06 06:30:55;;;;;;;25.70;6.60;;;;;;;13.01;57.85;99503.58;79570;1303;3011563;-70
2023/10/06 06:33:23;;;;;;;20.70;6.60;;;;;;;13.10;57.97;99501.21;78220;1296;3050158;-70
2023/10/06 06:35:49;;;;;;;16.20;5.50;;;;;;;13.17;57.91;99498.09;79344;1303;3013774;-68
2023/10/06 06:38:18;;;;;;;16.20;5.40;;;;;;;13.24;58.15;99505.64;79407;1300;3011279;-67
2023/10/06 06:40:46;;;;;;;20.50;6.60;;;;;;;13.39;57.62;99506.02;78262;1298;3050184;-65
2023/10/06 06:43:12;;;;;;;21.70;5.70;;;;;;;13.45;57.11;99503.89;79489;1298;3013472;-64
2023/10/06 06:45:41;;;;;;;20.60;6.10;;;;;;;13.51;57.40;99497.59;79433;1301;3012220;-69
2023/10/06 06:48:16;;;;;;;14.80;6.00;;;;;;;13.59;57.32;99490.15;78210;1296;3050953;-71
2023/10/06 06:50:44;;;;;;;16.20;5.50;;;;;;;13.69;57.18;99494.89;78193;1303;3052266;-71
2023/10/06 06:53:11;;;;;;;12.50;5.10;;;;;;;13.77;57.04;99482.88;79327;1299;3013620;-70
2023/10/06 06:55:38;;;;;;;16.30;6.30;;;;;;;13.93;57.01;99482.40;79509;1301;3013617;-69
2023/10/06 06:58:10;;;;;;;14.30;5.80;;;;;;;14.04;56.61;99484.77;77949;1301;3028631;-70
2023/10/06 07:00:39;;;;;;;23.40;6.20;;;;;;;14.15;56.63;99487.83;79420;1301;3011805;-67
2023/10/06 07:03:08;;;;;;;14.50;4.90;;;;;;;14.20;55.95;99480.59;78160;1299;3052973;-70
2023/10/06 07:05:35;;;;;;;14.80;5.40;;;;;;;14.22;55.82;99481.52;79467;1301;3013290;-65
2023/10/06 07:08:05;;;;;;;16.60;5.00;;;;;;;14.29;56.00;99471.11;79551;1299;3011756;-69
2023/10/06 07:10:33;;;;;;;23.70;4.60;;;;;;;14.36;55.99;99474.13;78472;1297;3069798;-70
2023/10/06 07:13:00;;;;;;;17.60;5.30;;;;;;;14.40;55.67;99470.65;79453;1299;3013092;-68
2023/10/06 07:15:30;;;;;;;14.90;4.90;;;;;;;14.44;55.61;99471.03;79299;1298;3011875;-71
2023/10/06 07:17:58;;;;;;;17.50;5.70;;;;;;;14.51;55.17;99480.17;78271;1302;3054275;-68
2023/10/06 07:20:27;;;;;;;18.50;5.00;;;;;;;14.60;55.08;99476.38;79403;1303;3013339;-67
2023/10/06 07:23:00;;;;;;;13.50;5.30;;;;;;;14.74;54.79;99473.67;79279;1301;3013178;-64
2023/10/06 07:25:27;;;;;;;12.30;4.40;;;;;;;14.91;54.52;99471.67;79571;1298;3011728;-68
2023/10/06 07:27:57;;;;;;;11.10;4.80;;;;;;;15.03;54.22;99475.86;78085;1297;3067247;-66
2023/10/06 07:30:27;;;;;;;17.30;5.50;;;;;;;15.08;53.94;99470.52;79322;1297;3011944;-68
2023/10/06 07:32:55;;;;;;;15.60;5.50;;;;;;;15.14;54.01;99470.36;78146;1301;3056806;-66
2023/10/06 07:38:13;;;;;;;17.70;4.30;;;;;;;15.24;53.80;99475.38;78046;1301;3050435;-66
2023/10/06 07:40:42;;;;;;;18.20;4.30;;;;;;;15.36;53.85;99472.66;79572;1298;3012053;-67
2023/10/06 07:43:10;;;;;;;12.60;4.80;;;;;;;15.46;53.54;99472.98;78174;1297;3053328;-65
2023/10/06 07:45:37;;;;;;;13.70;4.70;;;;;;;15.51;53.54;99457.18;79321;1301;3012819;-67
2023/10/06 07:48:06;;;;;;;12.20;4.90;;;;;;;15.57;53.58;99457.38;79660;1299;3013592;-68
2023/10/06 07:50:35;;;;;;;13.40;4.00;;;;;;;15.64;53.60;99465.34;78296;1303;3051993;-67
2023/10/06 07:53:01;;;;;;;19.30;5.40;;;;;;;15.63;53.62;99452.89;79522;1297;3011941;-68
2023/10/06 07:55:28;;;;;;;22.10;5.40;;;;;;;15.67;53.78;99450.10;79569;1298;3011951;-69
2023/10/06 07:57:58;;;;;;;10.70;4.40;;;;;;;15.74;53.57;99450.39;78296;1301;3026470;-65
2023/10/06 08:00:28;;;;;;;18.40;5.40;;;;;;;15.73;53.57;99445.02;79572;1297;3011422;-68
2023/10/06 08:03:00;;;;;;;15.00;4.50;;;;;;;15.77;53.65;99441.98;78164;1303;3050929;-67
2023/10/06 08:05:27;;;;;;;13.70;4.70;;;;;;;15.82;53.24;99450.80;79471;1301;3014100;-65
2023/10/06 08:07:58;;;;;;;12.00;4.60;;;;;;;15.80;52.81;99455.02;78606;1301;3026556;-70
2023/10/06 08:10:25;;;;;;;12.10;4.40;;;;;;;15.92;52.80;99450.15;79607;1297;3011492;-67
2023/10/06 08:13:02;;;;;;;9.70;4.10;;;;;;;16.05;52.58;99446.45;78317;1300;3026914;-73
2023/10/06 08:15:32;;;;;;;14.50;4.90;;;;;;;16.10;52.40;99440.54;78232;1301;3053241;-66
2023/10/06 08:17:58;;;;;;;18.80;4.60;;;;;;;16.22;52.22;99429.82;79700;1301;3012887;-68
2023/10/06 08:20:25;;;;;;;14.40;4.30;;;;;;;16.19;51.88;99429.41;79417;1297;3013220;-69
2023/10/06 08:22:53;;;;;;;13.10;4.30;;;;;;;16.15;51.98;99434.47;78617;1302;3057564;-66
2023/10/06 08:25:19;;;;;;;11.10;4.30;;;;;;;16.15;51.87;99443.82;79750;1301;3013436;-69
2023/10/06 08:27:47;;;;;;;14.00;4.30;;;;;;;16.24;51.98;99449.93;79580;1301;3011514;-67
2023/10/06 08:30:19;;;;;;;10.90;4.10;;;;;;;16.26;51.60;99447.32;78383;1297;3052749;-69
2023/10/06 08:32:46;;;;;;;15.40;4.60;;;;;;;16.23;51.58;99440.35;79635;1301;3011645;-66
2023/10/06 08:35:15;;;;;;;18.50;5.00;;;;;;;16.39;51.35;99443.23;78459;1302;3068923;-65
2023/10/06 08:37:45;;;;;;;12.90;4.20;;;;;;;16.45;51.18;99446.64;79896;1299;3012909;-69
2023/10/06 08:40:19;;;;;;;15.50;4.10;;;;;;;16.54;51.11;99440.54;78503;1297;3048205;-69
2023/10/06 08:42:51;;;;;;;13.40;4.40;;;;;;;16.69;50.79;99437.65;79498;1299;3011825;-66
2023/10/06 08:45:28;;;;;;;15.20;4.40;;;;;;;16.79;50.58;99438.25;78211;1301;3049867;-65
2023/10/06 08:48:01;;;;;;;16.80;4.40;;;;;;;16.84;49.76;99434.59;78280;1301;3053748;-64
2023/10/06 08:50:31;;;;;;;11.70;4.50;;;;;;;16.84;49.43;99437.40;79438;1301;3011783;-68
2023/10/06 08:53:09;;;;;;;12.90;3.70;;;;;;;17.03;48.76;99430.87;78224;1301;3068366;-69
2023/10/06 08:55:39;;;;;;;10.80;3.60;;;;;;;17.02;48.71;99429.66;78417;1301;3051088;-68
2023/10/06 08:58:07;;;;;;;19.10;4.80;;;;;;;16.95;48.87;99423.42;79473;1299;3018301;-67
2023/10/06 09:00:35;;;;;;;17.30;4.30;;;;;;;16.88;48.55;99427.88;79633;1303;3011689;-73
2023/10/06 09:03:13;;;;;;;13.20;4.40;;;;;;;16.90;48.41;99430.57;78191;1301;3049388;-74
2023/10/06 09:05:41;;;;;;;17.00;4.00;;;;;;;16.85;47.99;99421.10;78265;1301;3052382;-68
2023/10/06 09:08:09;;;;;;;18.60;4.60;;;;;;;16.79;48.33;99431.96;79432;1302;3014839;-67
2023/10/06 09:10:50;;;;;;;12.40;4.60;;;;;;;16.88;48.30;99427.73;78828;1299;3011755;-66
2023/10/06 09:13:26;;;;;;;11.10;3.90;;;;;;;16.83;48.19;99435.02;78252;1301;3051196;-67
2023/10/06 09:16:06;;;;;;;16.90;5.30;;;;;;;17.06;48.08;99424.24;78364;1298;3057629;-66
2023/10/06 09:18:35;;;;;;;12.00;4.50;;;;;;;17.03;48.17;99419.20;78295;1298;3050099;-67
2023/10/06 09:21:27;;;;;;;15.30;4.90;;;;;;;16.92;48.64;99418.36;79344;1301;3013472;-66
2023/10/06 09:24:03;;;;;;;12.90;4.30;;;;;;;16.91;48.20;99411.20;78309;1301;3052948;-66
2023/10/06 09:26:32;;;;;;;13.50;4.20;;;;;;;16.98;47.89;99408.48;78899;1301;3012183;-66
2023/10/06 09:29:02;;;;;;;12.10;4.20;;;;;;;17.03;48.04;99415.48;79456;1298;3018741;-68
2023/10/06 09:31:39;;;;;;;8.60;3.70;;;;;;;17.11;48.32;99412.08;78754;1303;3011358;-67
2023/10/06 09:34:07;;;;;;;11.90;3.80;;;;;;;17.21;47.94;99411.59;78213;1301;3051867;-67
2023/10/06 09:36:34;;;;;;;10.70;3.80;;;;;;;17.47;47.48;99409.77;79658;1298;3012883;-69
2023/10/06 09:39:00;;;;;;;14.00;4.70;;;;;;;17.46;47.74;99417.28;79604;1301;3013563;-69
2023/10/06 09:41:30;;;;;;;12.60;4.50;;;;;;;17.29;48.12;99427.11;78070;1301;3050742;-65
2023/10/06 09:44:07;;;;;;;11.20;4.30;;;;;;;17.10;48.40;99411.84;79440;1301;3014417;-69
2023/10/06 09:46:35;;;;;;;15.10;3.80;;;;;;;16.90;48.48;99411.09;78180;1301;3069027;-66
2023/10/06 09:49:05;;;;;;;15.00;3.80;;;;;;;16.92;48.84;99413.74;79388;1298;3021539;-69
2023/10/06 09:51:36;;;;;;;9.30;3.70;;;;;;;16.84;48.65;99420.66;79094;1297;3012591;-74
2023/10/06 09:54:09;;;;;;;10.10;4.30;;;;;;;16.77;49.23;99417.00;79706;1297;3013806;-73
2023/10/06 09:56:37;;;;;;;12.80;4.30;;;;;;;16.81;49.30;99413.23;78237;1297;3052610;-68
2023/10/06 09:59:04;;;;;;;11.70;4.30;;;;;;;16.92;48.62;99402.77;79362;1304;3020636;-66
2023/10/06 10:01:32;;;;;;;12.60;4.50;;;;;;;17.11;48.02;99407.16;79320;1303;3012651;-69
2023/10/06 10:04:00;;;;;;;16.10;4.70;;;;;;;17.06;47.98;99421.22;78115;1301;3068381;-72
2023/10/06 10:06:27;;;;;;;14.20;4.20;;;;;;;17.10;47.94;99411.48;79299;1298;3019283;-70
2023/10/06 10:08:54;;;;;;;14.70;4.30;;;;;;;17.15;47.41;99404.69;79560;1298;3011817;-69
2023/10/06 10:11:29;;;;;;;8.90;3.80;;;;;;;17.10;46.97;99407.40;78381;1297;3053673;-72
2023/10/06 10:14:34;;;;;;;15.10;3.70;;;;;;;17.01;47.19;99410.14;79545;1299;3011830;-74
2023/10/06 10:17:29;;;;;;;14.70;4.20;;;;;;;17.15;46.72;99410.31;78147;1308;3054568;-69
2023/10/06 10:19:58;;;;;;;14.30;3.40;;;;;;;17.39;46.23;99408.50;78598;1301;3053709;-70
2023/10/06 10:22:25;;;;;;;8.70;3.50;;;;;;;17.59;46.25;99399.66;79539;1301;3011701;-72
2023/10/06 10:24:51;;;;;;;12.40;4.10;;;;;;;17.74;45.94;99392.48;79440;1298;3011471;-68
2023/10/06 10:27:22;;;;;;;15.20;4.60;;;;;;;17.82;46.22;99395.11;78282;1302;3049224;-73
2023/10/06 10:29:49;;;;;;;13.40;4.50;;;;;;;17.90;46.16;99383.89;79368;1301;3011737;-68
2023/10/06 10:32:24;;;;;;;10.50;4.10;;;;;;;18.14;45.43;99387.34;78930;1303;3013461;-72
2023/10/06 10:35:13;;;;;;;11.70;4.00;;;;;;;18.23;45.23;99386.23;79258;1302;3011561;-76
2023/10/06 10:37:55;;;;;;;10.50;4.00;;;;;;;18.22;45.50;99382.22;78132;1303;3052679;-69
2023/10/06 10:40:27;;;;;;;14.20;3.90;;;;;;;17.97;44.86;99392.50;78165;1299;3069675;-77
2023/10/06 10:43:02;;;;;;;8.90;3.40;;;;;;;17.96;44.83;99387.85;79571;1297;3012978;-72
2023/10/06 10:45:34;;;;;;;5.40;3.00;;;;;;;17.84;45.32;99398.09;78402;1298;3057668;-64
2023/10/06 10:48:05;;;;;;;15.70;3.40;;;;;;;17.53;45.73;99391.88;79558;1299;3011916;-72
2023/10/06 10:51:01;;;;;;;18.90;3.70;;;;;;;17.27;45.59;99405.22;78430;1299;3052580;-72
2023/10/06 10:53:30;;;;;;;12.40;2.90;;;;;;;17.13;45.63;99400.45;78409;1302;3050918;-75
2023/10/06 10:55:57;;;;;;;8.10;2.90;;;;;;;17.19;45.32;99392.48;79566;1301;3013904;-70
2023/10/06 10:58:42;;;;;;;7.20;3.40;;;;;;;17.30;44.76;99393.80;79583;1304;3013237;-74
2023/10/06 11:01:32;;;;;;;6.20;2.90;;;;;;;17.52;44.03;99390.20;78236;1300;3051724;-70
2023/10/06 11:04:18;;;;;;;8.00;3.20;;;;;;;17.62;42.91;99399.18;78235;1302;3057386;-72
2023/10/06 11:06:48;;;;;;;9.60;2.90;;;;;;;17.87;42.47;99393.77;78403;1299;3049422;-75
2023/10/06 11:12:24;;;;;;;14.70;4.10;;;;;;;18.14;41.43;99387.59;78176;1300;3050777;-68
2023/10/06 11:14:51;;;;;;;;;;;;;;;17.94;42.97;99397.61;79460;1303;3011696;-67
2023/10/06 11:17:22;;;;;;;11.30;2.90;;;;;;;17.69;43.87;99392.20;78215;1301;3051454;-67
2023/10/06 11:20:01;;;;;;;11.30;3.80;;;;;;;17.60;45.16;99387.71;79527;1301;3011882;-66
2023/10/06 11:22:33;;;;;;;11.20;3.10;;;;;;;17.76;45.23;99392.06;78274;1303;3051665;-76
2023/10/06 11:25:03;;;;;;;9.70;2.70;;;;;;;17.87;44.83;99393.07;79518;1306;3012898;-70
2023/10/06 11:27:31;;;;;;;7.50;2.30;;;;;;;17.81;45.47;99392.14;78291;1303;3052359;-71
2023/10/06 11:30:00;;;;;;;7.70;2.60;;;;;;;17.94;45.28;99383.05;79449;1298;3021336;-68
2023/10/06 11:32:28;;;;;;;14.80;2.90;;;;;;;18.09;44.92;99397.03;79397;1303;3013188;-68
2023/10/06 11:34:56;;;;;;;14.40;2.60;;;;;;;18.07;44.86;99390.86;78224;1301;3068320;-67
2023/10/06 11:37:24;;;;;;;18.40;2.20;;;;;;;18.01;44.82;99397.09;79408;1299;3013392;-66
2023/10/06 11:39:54;;;;;;;6.90;1.50;;;;;;;17.99;44.33;99402.04;79276;1301;3012091;-71
2023/10/06 11:42:25;;;;;;;22.50;2.60;;;;;;;17.80;44.26;99394.18;78122;1301;3056652;-71
2023/10/06 11:44:52;;;;;;;7.90;2.10;;;;;;;17.98;43.92;99392.27;79640;1304;3013021;-72
2023/10/06 11:47:27;;;;;;;8.90;2.10;;;;;;;17.91;42.96;99405.80;78969;1302;3013286;-72
2023/10/06 11:49:54;;;;;;;13.30;2.40;;;;;;;17.80;42.61;99396.11;79300;1302;3011789;-69
2023/10/06 11:52:22;;;;;;;10.20;2.10;;;;;;;17.79;42.19;99398.05;78540;1302;3068543;-72
2023/10/06 11:54:49;;;;;;;9.90;2.00;;;;;;;17.75;41.82;99401.19;79321;1297;3018254;-67
2023/10/06 11:57:16;;;;;;;6.30;2.00;;;;;;;17.68;42.11;99406.14;79563;1299;3012890;-65
2023/10/06 11:59:51;;;;;;;9.90;1.90;;;;;;;17.79;41.83;99395.00;78455;1299;3026615;-69
2023/10/06 12:02:21;;;;;;;6.60;1.60;;;;;;;17.96;41.44;99396.34;78921;1301;3011738;-67
2023/10/06 12:04:48;;;;;;;15.30;2.00;;;;;;;17.97;41.46;99410.23;79541;1297;3013180;-74
2023/10/06 12:07:21;;;;;;;15.00;2.20;;;;;;;17.82;41.55;99409.27;79554;1304;3013607;-70
2023/10/06 12:09:49;;;;;;;15.50;2.00;;;;;;;17.81;42.04;99400.65;78170;1301;3068768;-70
2023/10/06 12:12:20;;;;;;;15.40;1.70;;;;;;;17.85;42.61;99402.77;79490;1298;3013190;-70
2023/10/06 12:14:50;;;;;;;14.20;1.70;;;;;;;17.92;42.27;99405.91;78146;1304;3048006;-71
2023/10/06 12:17:17;;;;;;;6.50;2.00;;;;;;;17.87;41.99;99403.48;79352;1302;3015126;-72
2023/10/06 12:19:44;;;;;;;13.40;2.10;;;;;;;17.77;42.17;99420.53;79372;1301;3011818;-74
2023/10/06 12:22:11;;;;;;;7.30;1.80;;;;;;;17.83;42.33;99404.38;78142;1301;3053250;-73
2023/10/06 12:24:38;;;;;;;8.80;1.90;;;;;;;17.97;41.69;99400.96;79486;1299;3018808;-72
2023/10/06 12:27:04;;;;;;;10.80;2.10;;;;;;;18.01;41.25;99400.81;79447;1299;3011634;-71
2023/10/06 12:29:32;;;;;;;12.40;1.50;;;;;;;18.02;41.17;99397.16;78250;1301;3028030;-62
2023/10/06 12:31:59;;;;;;;3.50;1.60;;;;;;;17.92;41.77;99411.20;79335;1298;3019208;-64
2023/10/06 12:34:27;;;;;;;9.20;1.90;;;;;;;17.86;41.87;99403.89;79528;1301;3011683;-67
2023/10/06 12:37:01;;;;;;;10.80;1.40;;;;;;;17.85;41.91;99395.48;78335;1303;3052586;-66
2023/10/06 12:39:34;;;;;;;4.00;1.30;;;;;;;17.79;41.74;99400.65;79634;1301;3011556;-71
2023/10/06 12:42:04;;;;;;;6.00;1.50;;;;;;;17.70;41.64;99402.19;78278;1296;3051066;-66
2023/10/06 12:44:30;;;;;;;10.00;1.70;;;;;;;17.81;41.50;99399.08;79487;1296;3011434;-68
2023/10/06 12:47:10;;;;;;;7.30;1.20;;;;;;;17.85;40.45;99406.16;79436;1300;3011667;-74
2023/10/06 12:49:43;;;;;;;12.40;1.40;;;;;;;17.70;39.42;99406.77;78300;1299;3049477;-70
2023/10/06 12:52:10;;;;;;;16.40;1.70;;;;;;;17.74;38.92;99401.69;79550;1298;3011715;-64
2023/10/06 12:54:39;;;;;;;8.10;1.50;;;;;;;17.65;39.43;99411.54;78460;1298;3050467;-68
2023/10/06 12:57:06;;;;;;;7.60;1.50;;;;;;;17.89;39.61;99397.13;79589;1296;3012847;-74
2023/10/06 12:59:32;;;;;;;8.40;1.10;;;;;;;17.98;39.06;99406.73;79598;1295;3011610;-73
2023/10/06 13:02:03;;;;;;;4.90;1.50;;;;;;;17.84;39.59;99402.39;78397;1301;3047968;-68
2023/10/06 13:04:30;;;;;;;13.70;1.50;;;;;;;17.86;39.79;99397.05;79556;1296;3011984;-68
2023/10/06 13:06:59;;;;;;;4.20;1.50;;;;;;;17.79;39.76;99407.06;78253;1301;3028011;-66
2023/10/06 13:09:27;;;;;;;7.70;1.50;;;;;;;17.78;39.74;99399.57;79583;1300;3011616;-68
2023/10/06 13:11:56;;;;;;;6.30;1.80;;;;;;;17.84;40.04;99399.34;79082;1301;3013451;-66
2023/10/06 13:14:23;;;;;;;7.00;1.20;;;;;;;17.89;40.76;99401.25;79728;1299;3013054;-71
2023/10/06 13:16:49;;;;;;;6.50;1.80;;;;;;;17.81;40.55;99396.95;79378;1295;3013267;-66
2023/10/06 13:19:17;;;;;;;6.00;1.30;;;;;;;17.95;40.35;99402.11;78305;1303;3025921;-75
2023/10/06 13:21:43;;;;;;;4.00;1.50;;;;;;;18.07;40.26;99401.98;79579;1297;3019040;-67
2023/10/06 13:24:12;;;;;;;4.80;1.50;;;;;;;17.94;40.34;99411.34;79475;1303;3011582;-71
2023/10/06 13:26:43;;;;;;;4.10;1.70;;;;;;;17.88;40.83;99404.81;78347;1300;3054217;-66
2023/10/06 13:29:10;;;;;;;7.10;1.50;;;;;;;17.77;40.63;99405.33;79403;1300;3011730;-73
2023/10/06 13:31:39;;;;;;;5.90;1.60;;;;;;;17.72;40.45;99405.05;78982;1296;3012857;-69
2023/10/06 13:34:07;;;;;;;6.80;1.50;;;;;;;17.85;40.15;99407.02;79497;1297;3013567;-69
2023/10/06 13:36:34;;;;;;;4.10;1.50;;;;;;;17.94;40.39;99402.20;79473;1298;3013138;-71
2023/10/06 13:39:07;;;;;;;5.00;1.40;;;;;;;17.82;40.73;99417.04;78459;1297;3051190;-69
2023/10/06 13:41:41;;;;;;;6.40;1.90;;;;;;;17.76;40.33;99423.45;79433;1298;3011577;-66
2023/10/06 13:44:09;;;;;;;6.90;1.60;;;;;;;17.73;40.58;99411.20;78312;1300;3052933;-66
2023/10/06 13:46:35;;;;;;;7.60;1.40;;;;;;;17.83;40.83;99404.94;79733;1300;3013568;-67
2023/10/06 13:49:04;;;;;;;10.10;1.60;;;;;;;17.75;41.12;99412.38;79467;1299;3012923;-69
2023/10/06 13:51:34;;;;;;;6.40;1.40;;;;;;;17.56;41.22;99424.34;78313;1295;3048625;-68
2023/10/06 13:54:01;;;;;;;11.40;1.70;;;;;;;17.56;41.70;99434.64;79687;1299;3011849;-64
2023/10/06 13:56:31;;;;;;;8.80;1.60;;;;;;;17.51;41.69;99424.31;79461;1298;3011803;-68
2023/10/06 13:58:59;;;;;;;4.90;1.40;;;;;;;17.53;41.74;99420.89;78433;1300;3054336;-70
2023/10/06 14:01:25;;;;;;;5.90;1.80;;;;;;;17.75;41.35;99417.35;79652;1302;3013292;-69
2023/10/06 14:03:52;;;;;;;8.40;2.10;;;;;;;17.84;41.16;99422.71;79656;1298;3011519;-74
2023/10/06 14:06:20;;;;;;;4.20;1.80;;;;;;;17.60;41.11;99433.04;78376;1300;3026068;-69
2023/10/06 14:08:48;;;;;;;2.90;1.40;;;;;;;17.61;41.33;99436.90;79487;1296;3013351;-70
2023/10/06 14:11:14;;;;;;;3.30;1.70;;;;;;;17.44;41.36;99433.80;79615;1303;3012899;-68
2023/10/06 14:13:44;;;;;;;5.60;1.70;;;;;;;17.55;41.34;99439.36;78305;1297;3052137;-70
2023/10/06 14:16:10;;;;;;;6.40;1.80;;;;;;;17.34;41.61;99439.05;79495;1296;3011805;-67
2023/10/06 14:18:40;;;;;;;8.50;1.80;;;;;;;17.41;42.06;99435.23;79637;1295;3011485;-67
2023/10/06 14:21:09;;;;;;;4.50;2.00;;;;;;;17.23;41.85;99446.75;78519;1297;3048571;-67
2023/10/06 14:23:41;;;;;;;5.20;2.00;;;;;;;17.19;42.21;99443.59;79499;1295;3013651;-69
2023/10/06 14:26:10;;;;;;;4.70;1.80;;;;;;;17.11;42.19;99437.41;78240;1297;3050459;-67
2023/10/06 14:28:37;;;;;;;11.80;2.10;;;;;;;17.07;42.67;99443.77;79397;1300;3013602;-67
2023/10/06 14:31:58;;;;;;;4.60;2.10;;;;;;;17.11;42.20;99439.69;79587;1297;3011863;-68
2023/10/06 14:34:33;;;;;;;7.60;2.10;;;;;;;17.12;42.80;99448.08;78359;1297;3051731;-69
2023/10/06 14:36:46;;;;;;;7.50;2.10;;;;;;;17.02;43.08;99452.34;78386;1297;3058006;-70
2023/10/06 14:47:42;;;;;;;11.10;2.30;;;;;;;16.67;44.59;99460.07;78340;1297;3054567;-68
2023/10/06 14:50:12;;;;;;;6.80;2.20;;;;;;;16.58;44.51;99469.54;79494;1300;3018974;-69
2023/10/06 14:52:41;;;;;;;8.30;2.60;;;;;;;16.49;44.87;99468.55;79108;1300;3012575;-70
2023/10/06 14:55:09;;;;;;;7.40;2.10;;;;;;;16.53;44.87;99463.48;79794;1296;3012889;-68
2023/10/06 14:57:37;;;;;;;6.20;2.30;;;;;;;16.48;45.10;99472.67;79612;1295;3011447;-67
2023/10/06 15:00:06;;;;;;;10.20;1.90;;;;;;;16.35;45.39;99471.51;78453;1300;3048589;-67
2023/10/06 15:02:33;;;;;;;7.00;2.70;;;;;;;16.28;45.63;99473.27;79566;1296;3012813;-65
2023/10/06 15:04:59;;;;;;;7.20;2.40;;;;;;;16.11;46.11;99483.38;79584;1296;3011563;-68
2023/10/06 15:07:27;;;;;;;6.90;2.20;;;;;;;16.00;46.49;99485.89;78248;1298;3052349;-69
2023/10/06 15:09:55;;;;;;;10.30;2.90;;;;;;;15.91;46.66;99487.52;79610;1302;3013068;-68
2023/10/06 15:12:25;;;;;;;11.10;2.90;;;;;;;15.92;46.76;99494.71;79218;1296;3011871;-70
2023/10/06 15:14:53;;;;;;;10.90;2.80;;;;;;;15.77;46.80;99497.09;78235;1300;3049906;-69
2023/10/06 15:17:20;;;;;;;9.10;3.30;;;;;;;15.71;46.76;99499.55;79297;1300;3013046;-68
2023/10/06 15:19:47;;;;;;;10.90;2.90;;;;;;;15.59;46.83;99497.49;79700;1300;3013162;-69
2023/10/06 15:22:14;;;;;;;10.10;2.60;;;;;;;15.61;46.79;99495.56;78229;1298;3051645;-67
2023/10/06 15:24:41;;;;;;;14.60;3.30;;;;;;;15.44;46.96;99501.66;79517;1299;3020646;-72
2023/10/06 15:27:08;;;;;;;10.40;2.90;;;;;;;15.44;46.88;99495.88;79464;1300;3011473;-65
2023/10/06 15:29:36;;;;;;;6.80;3.00;;;;;;;15.42;46.59;99494.59;77975;1300;3026408;-69
2023/10/06 15:32:02;;;;;;;11.20;2.30;;;;;;;15.29;46.57;99503.09;79398;1300;3018838;-71
2023/10/06 15:34:29;;;;;;;9.20;2.60;;;;;;;15.29;46.53;99501.29;79308;1300;3011607;-65
2023/10/06 15:36:59;;;;;;;14.90;2.70;;;;;;;15.21;46.48;99509.90;78221;1300;3026286;-70
2023/10/06 15:39:25;;;;;;;10.80;2.80;;;;;;;15.11;46.47;99516.29;79473;1297;3011988;-65
2023/10/06 15:41:52;;;;;;;8.90;2.40;;;;;;;15.05;46.59;99514.33;79633;1296;3013084;-64
2023/10/06 15:44:20;;;;;;;10.50;2.60;;;;;;;14.96;46.78;99512.92;78095;1301;3049236;-70
2023/10/06 15:46:47;;;;;;;15.30;3.10;;;;;;;14.91;46.93;99518.17;79507;1300;3013195;-70
2023/10/06 15:49:15;;;;;;;11.90;3.20;;;;;;;14.91;46.61;99522.11;79335;1296;3011508;-70
2023/10/06 15:51:43;;;;;;;17.30;2.60;;;;;;;14.95;46.59;99532.52;78551;1296;3050345;-69
2023/10/06 15:54:09;;;;;;;9.00;2.60;;;;;;;14.86;46.77;99531.45;79576;1297;3020493;-66
2023/10/06 15:56:38;;;;;;;9.30;3.30;;;;;;;14.84;46.64;99528.47;79327;1298;3013823;-69
2023/10/06 15:59:12;;;;;;;9.70;3.40;;;;;;;14.85;46.75;99526.27;78315;1301;3049098;-67
2023/10/06 16:01:43;;;;;;;9.50;3.20;;;;;;;14.72;46.79;99531.32;78794;1296;3011284;-66
2023/10/06 16:04:12;;;;;;;15.60;3.10;;;;;;;14.67;47.05;99533.85;79504;1297;3013530;-68
2023/10/06 16:06:42;;;;;;;10.30;2.90;;;;;;;14.66;46.92;99540.23;78935;1296;3013397;-67
2023/10/06 16:09:09;;;;;;;19.30;3.00;;;;;;;14.64;46.71;99539.31;79403;1295;3013168;-68